Time;durP1;ratioP1;P1;durP2;ratioP2;P2;SDS_P1;SDS_P2;PMS_P1;PMS_P2;Temp;Humidity;BMP_temperature;BMP_pressure;BME280_temperature;BME280_humidity;BME280_pressure;Samples;Min_cycle;Max_cycle;Signal;HPM_P1;HPM_P2
2022/10/30 00:00:23;;;;;;;2.35;1.20;;;24.50;43.80;;;;;;5049093;28;20239;-42
2022/10/30 00:02:54;;;;;;;1.55;1.20;;;24.50;43.80;;;;;;5051467;28;20694;-39
2022/10/30 00:05:25;;;;;;;1.52;1.00;;;24.60;43.90;;;;;;5032065;28;20322;-40
2022/10/30 00:07:58;;;;;;;2.17;1.15;;;24.60;43.90;;;;;;5032521;28;20227;-39
2022/10/30 00:10:28;;;;;;;1.67;1.10;;;24.60;43.90;;;;;;5032473;28;20656;-39
2022/10/30 00:12:59;;;;;;;1.60;1.10;;;24.60;44.10;;;;;;5032367;28;20200;-41
2022/10/30 00:15:30;;;;;;;3.15;1.00;;;24.60;44.10;;;;;;5032190;28;20200;-41
2022/10/30 00:18:01;;;;;;;1.55;0.90;;;24.70;44.00;;;;;;5032695;28;20216;-40
2022/10/30 00:20:31;;;;;;;2.03;1.00;;;24.70;43.90;;;;;;5032371;28;20188;-40
2022/10/30 00:23:04;;;;;;;2.35;1.20;;;24.70;43.80;;;;;;5032201;28;20228;-43
2022/10/30 00:25:36;;;;;;;2.25;1.10;;;24.70;43.70;;;;;;5032171;28;20200;-42
2022/10/30 00:28:08;;;;;;;2.05;1.20;;;24.70;43.70;;;;;;5031565;28;20220;-45
2022/10/30 00:30:38;;;;;;;5.47;1.17;;;24.70;43.70;;;;;;5050551;28;20888;-42
2022/10/30 00:33:09;;;;;;;1.27;1.13;;;24.80;43.70;;;;;;5051687;28;20588;-40
2022/10/30 00:35:40;;;;;;;1.80;1.02;;;24.80;43.70;;;;;;5031780;28;20682;-42
2022/10/30 00:38:12;;;;;;;1.42;1.00;;;24.80;43.70;;;;;;5031325;28;20216;-39
2022/10/30 00:40:43;;;;;;;2.38;0.98;;;24.80;43.70;;;;;;5031766;28;20196;-44
2022/10/30 00:43:29;;;;;;;2.47;0.90;;;24.90;43.90;;;;;;5030948;28;20738;-40
2022/10/30 00:46:03;;;;;;;1.10;0.88;;;24.80;43.80;;;;;;5031836;28;20729;-40
2022/10/30 00:48:34;;;;;;;1.98;0.90;;;24.90;43.90;;;;;;5033995;28;20220;-42
2022/10/30 00:51:06;;;;;;;1.52;0.90;;;24.90;43.90;;;;;;5051511;28;20195;-41
2022/10/30 00:53:39;;;;;;;1.33;0.80;;;24.90;43.90;;;;;;5051432;28;20196;-43
2022/10/30 00:56:13;;;;;;;1.67;0.70;;;24.90;43.80;;;;;;5050885;28;20211;-43
2022/10/30 00:58:47;;;;;;;2.35;0.80;;;24.90;43.60;;;;;;5051134;28;20220;-40
2022/10/30 01:01:21;;;;;;;1.58;0.88;;;25.00;43.60;;;;;;5051061;28;20206;-40
2022/10/30 01:03:55;;;;;;;1.80;0.80;;;25.00;43.60;;;;;;5050560;28;20250;-41
2022/10/30 01:06:27;;;;;;;1.98;1.00;;;25.00;43.50;;;;;;5050738;28;20198;-39
2022/10/30 01:09:00;;;;;;;1.95;0.85;;;25.00;43.50;;;;;;5050716;28;20206;-40
2022/10/30 01:11:30;;;;;;;2.08;0.80;;;25.00;43.50;;;;;;5050885;28;20191;-40
2022/10/30 01:14:06;;;;;;;1.80;0.70;;;25.10;43.50;;;;;;5050894;28;20566;-43
2022/10/30 01:16:55;;;;;;;1.20;0.60;;;25.10;43.60;;;;;;5050546;28;20218;-40
2022/10/30 01:19:32;;;;;;;1.20;0.60;;;25.10;43.60;;;;;;5050112;28;20217;-42
2022/10/30 01:22:27;;;;;;;1.63;0.80;;;25.10;43.60;;;;;;5050729;28;20594;-40
2022/10/30 01:25:13;;;;;;;3.38;1.08;;;25.10;43.70;;;;;;5050331;28;20411;-41
2022/10/30 01:27:52;;;;;;;0.90;0.77;;;25.20;43.70;;;;;;5049967;28;20226;-40
2022/10/30 01:30:38;;;;;;;1.55;0.75;;;25.20;43.70;;;;;;5047844;28;20199;-40
2022/10/30 01:33:18;;;;;;;0.98;0.57;;;25.20;43.80;;;;;;5050421;28;20199;-40
2022/10/30 01:35:55;;;;;;;0.90;0.70;;;25.20;43.60;;;;;;5049223;28;20200;-40
2022/10/30 01:38:29;;;;;;;1.70;0.80;;;25.20;43.60;;;;;;5049809;28;20211;-40
2022/10/30 01:41:02;;;;;;;4.30;0.80;;;25.20;43.50;;;;;;5050312;28;20195;-40
2022/10/30 01:43:34;;;;;;;1.02;0.80;;;25.30;43.50;;;;;;5049980;28;20238;-41
2022/10/30 01:46:28;;;;;;;0.77;0.77;;;25.30;43.50;;;;;;5050010;28;20199;-40
2022/10/30 01:49:18;;;;;;;1.35;0.50;;;25.30;43.50;;;;;;5049935;28;20191;-40
2022/10/30 01:51:59;;;;;;;1.08;0.55;;;25.30;43.50;;;;;;5050026;28;20196;-40
2022/10/30 01:54:39;;;;;;;1.27;0.65;;;25.40;43.60;;;;;;5049846;28;20195;-39
2022/10/30 01:57:19;;;;;;;1.65;0.80;;;25.40;43.70;;;;;;5050004;28;20215;-40
2022/10/30 01:59:55;;;;;;;0.93;0.57;;;25.40;43.60;;;;;;5050071;28;20402;-39
2022/10/30 02:02:26;;;;;;;1.25;0.63;;;25.40;43.70;;;;;;5050028;28;20679;-40
2022/10/30 02:04:57;;;;;;;0.88;0.60;;;25.50;43.70;;;;;;5049314;28;20223;-39
2022/10/30 02:07:28;;;;;;;1.00;0.60;;;25.50;43.70;;;;;;5050070;28;20215;-40
2022/10/30 02:09:59;;;;;;;1.55;0.60;;;25.50;43.60;;;;;;5050074;28;20714;-40
2022/10/30 02:12:32;;;;;;;1.15;0.60;;;25.50;43.60;;;;;;5049498;28;20202;-40
2022/10/30 02:15:04;;;;;;;1.08;0.60;;;25.60;43.50;;;;;;5049101;28;20205;-40
2022/10/30 02:17:34;;;;;;;0.45;0.40;;;25.60;43.50;;;;;;5049754;28;20223;-40
2022/10/30 02:20:05;;;;;;;2.40;0.55;;;25.60;43.50;;;;;;5049257;28;20195;-40
2022/10/30 02:22:38;;;;;;;1.40;0.88;;;25.60;43.40;;;;;;5049926;28;20208;-39
2022/10/30 02:25:09;;;;;;;1.65;0.50;;;25.70;43.50;;;;;;5049427;28;20203;-40
2022/10/30 02:27:40;;;;;;;1.23;0.60;;;25.70;43.50;;;;;;5049277;28;20226;-41
2022/10/30 02:30:12;;;;;;;1.27;0.55;;;25.70;43.50;;;;;;5049407;28;20200;-44
2022/10/30 02:32:43;;;;;;;0.95;0.50;;;25.80;43.50;;;;;;5049924;28;20199;-40
2022/10/30 02:35:13;;;;;;;1.77;0.70;;;25.80;43.50;;;;;;5047485;28;20666;-39
2022/10/30 02:37:48;;;;;;;1.15;0.60;;;25.80;43.40;;;;;;5049116;28;20212;-42
2022/10/30 02:40:19;;;;;;;2.05;0.55;;;25.90;43.50;;;;;;5042305;28;20325;-40
2022/10/30 02:42:55;;;;;;;1.75;0.70;;;25.90;43.50;;;;;;5034281;28;20210;-40
2022/10/30 02:45:25;;;;;;;1.02;0.68;;;25.90;43.40;;;;;;5040068;28;20195;-42
2022/10/30 02:47:56;;;;;;;1.13;0.68;;;25.90;43.30;;;;;;5029889;28;20212;-40
2022/10/30 02:50:27;;;;;;;0.90;0.60;;;26.00;43.30;;;;;;5030536;28;20242;-42
2022/10/30 02:53:01;;;;;;;0.60;0.50;;;26.00;43.20;;;;;;5033136;28;20192;-40
2022/10/30 02:55:32;;;;;;;1.65;0.60;;;26.00;43.10;;;;;;5040465;28;20672;-40
2022/10/30 02:58:02;;;;;;;0.90;0.55;;;26.10;43.00;;;;;;5044338;28;20215;-40
2022/10/30 03:00:33;;;;;;;1.00;0.50;;;26.10;43.00;;;;;;5049708;28;20207;-41
2022/10/30 03:03:04;;;;;;;1.38;0.65;;;26.10;42.90;;;;;;5031420;28;20196;-40
2022/10/30 03:05:35;;;;;;;0.80;0.50;;;26.20;42.80;;;;;;5030645;28;20204;-40
2022/10/30 03:08:07;;;;;;;0.88;0.52;;;26.20;42.90;;;;;;5032791;28;20220;-40
2022/10/30 03:10:38;;;;;;;1.67;0.40;;;26.20;42.90;;;;;;5034470;28;20197;-40
2022/10/30 03:13:09;;;;;;;1.08;0.70;;;26.20;43.00;;;;;;5047939;28;20188;-40
2022/10/30 03:15:39;;;;;;;1.05;0.52;;;26.30;43.10;;;;;;5034358;28;20196;-43
2022/10/30 03:18:10;;;;;;;1.80;0.50;;;26.30;43.10;;;;;;5033174;28;20604;-49
2022/10/30 03:20:41;;;;;;;1.13;0.60;;;26.30;43.20;;;;;;5049590;28;20188;-40
2022/10/30 03:23:13;;;;;;;1.40;0.80;;;26.30;43.20;;;;;;5035088;28;20586;-43
2022/10/30 03:25:44;;;;;;;0.93;0.52;;;26.30;43.00;;;;;;5033771;28;20585;-40
2022/10/30 03:28:15;;;;;;;0.65;0.52;;;26.40;42.80;;;;;;5049053;28;20207;-41
2022/10/30 03:30:45;;;;;;;1.60;0.63;;;26.40;42.80;;;;;;5052615;28;20199;-45
2022/10/30 03:33:16;;;;;;;0.98;0.50;;;26.40;42.60;;;;;;5036825;28;20200;-43
2022/10/30 03:35:47;;;;;;;0.63;0.50;;;26.40;42.50;;;;;;5052431;28;20199;-42
2022/10/30 03:38:20;;;;;;;0.90;0.52;;;26.50;42.50;;;;;;5052040;28;20215;-40
2022/10/30 03:40:50;;;;;;;0.60;0.32;;;26.50;42.50;;;;;;5053239;28;20191;-41
2022/10/30 03:43:22;;;;;;;0.57;0.40;;;26.50;42.50;;;;;;5053155;28;20669;-40
2022/10/30 03:45:53;;;;;;;1.20;0.57;;;26.50;42.70;;;;;;5053090;28;20222;-40
2022/10/30 03:48:26;;;;;;;1.98;0.52;;;26.50;42.70;;;;;;5034581;28;20714;-41
2022/10/30 03:50:57;;;;;;;1.35;0.50;;;26.50;42.70;;;;;;5034003;28;20215;-40
2022/10/30 03:53:31;;;;;;;1.05;0.60;;;26.60;42.70;;;;;;5033185;28;20211;-40
2022/10/30 03:56:03;;;;;;;1.70;0.60;;;26.60;42.70;;;;;;5033116;28;20199;-40
2022/10/30 03:58:34;;;;;;;0.90;0.55;;;26.60;42.80;;;;;;5051397;28;20219;-40
2022/10/30 04:01:05;;;;;;;1.52;0.70;;;26.60;42.90;;;;;;5052904;28;20187;-42
2022/10/30 04:03:36;;;;;;;2.72;0.50;;;26.60;43.00;;;;;;5032827;28;20224;-40
2022/10/30 04:06:07;;;;;;;1.48;0.50;;;26.70;43.00;;;;;;5033674;28;20561;-42
2022/10/30 04:08:40;;;;;;;2.85;0.60;;;26.70;42.90;;;;;;5052559;28;20215;-40
2022/10/30 04:11:12;;;;;;;0.75;0.50;;;26.70;42.70;;;;;;5052151;28;20210;-42
2022/10/30 04:13:43;;;;;;;1.08;0.45;;;26.70;42.70;;;;;;5052722;28;20224;-40
2022/10/30 04:16:14;;;;;;;0.50;0.40;;;26.70;42.60;;;;;;5052834;28;20569;-42
2022/10/30 04:18:44;;;;;;;0.82;0.50;;;26.80;42.60;;;;;;5051636;28;20222;-40
2022/10/30 04:21:15;;;;;;;0.38;0.32;;;26.80;42.70;;;;;;5048175;28;20570;-41
2022/10/30 04:23:48;;;;;;;1.23;0.60;;;26.80;42.70;;;;;;5033642;28;20216;-40
2022/10/30 04:26:18;;;;;;;1.42;0.55;;;26.90;42.70;;;;;;5033066;28;20223;-41
2022/10/30 04:28:51;;;;;;;1.90;0.52;;;26.80;42.70;;;;;;5035941;28;20702;-40
2022/10/30 04:31:21;;;;;;;0.85;0.47;;;26.90;42.70;;;;;;5051420;28;20640;-40
2022/10/30 04:33:52;;;;;;;0.65;0.40;;;26.90;42.50;;;;;;5052140;28;20204;-44
2022/10/30 04:36:28;;;;;;;0.47;0.30;;;26.90;42.50;;;;;;5051293;28;20199;-43
2022/10/30 04:39:01;;;;;;;1.27;0.60;;;26.90;42.50;;;;;;5031707;28;20212;-40
2022/10/30 04:41:32;;;;;;;0.52;0.50;;;26.90;42.80;;;;;;5031585;28;20193;-42
2022/10/30 04:44:02;;;;;;;0.30;0.30;;;27.00;43.00;;;;;;5031292;28;20642;-40
2022/10/30 04:46:34;;;;;;;0.60;0.57;;;27.00;42.90;;;;;;5031259;28;20231;-40
2022/10/30 04:49:05;;;;;;;0.40;0.40;;;27.00;42.90;;;;;;5031641;28;20188;-40
2022/10/30 04:51:35;;;;;;;0.60;0.40;;;27.00;42.70;;;;;;5032182;28;20426;-40
2022/10/30 04:54:08;;;;;;;0.73;0.35;;;27.00;42.70;;;;;;5051135;28;20192;-40
2022/10/30 04:56:39;;;;;;;0.80;0.52;;;27.00;42.70;;;;;;5050682;28;20187;-40
2022/10/30 04:59:09;;;;;;;0.65;0.40;;;27.00;42.50;;;;;;5051270;28;20207;-43
2022/10/30 05:01:40;;;;;;;0.63;0.30;;;27.10;42.60;;;;;;5051063;28;20191;-40
2022/10/30 05:04:11;;;;;;;0.80;0.40;;;27.10;42.50;;;;;;5051074;28;20223;-40
2022/10/30 05:06:41;;;;;;;0.68;0.43;;;27.10;42.20;;;;;;5050437;28;20226;-42
2022/10/30 05:09:14;;;;;;;0.43;0.43;;;27.10;42.20;;;;;;5051076;28;20199;-40
2022/10/30 05:11:45;;;;;;;0.40;0.40;;;27.00;42.00;;;;;;5051083;28;20232;-39
2022/10/30 05:14:15;;;;;;;1.27;0.63;;;27.00;42.00;;;;;;5050823;28;20195;-40
2022/10/30 05:16:46;;;;;;;0.90;0.40;;;27.00;42.20;;;;;;5050332;28;20199;-40
2022/10/30 05:19:17;;;;;;;0.55;0.38;;;27.00;42.40;;;;;;5050675;28;20206;-41
2022/10/30 05:21:47;;;;;;;0.70;0.40;;;27.10;42.50;;;;;;5042532;28;20199;-39
2022/10/30 05:24:20;;;;;;;2.42;0.60;;;27.10;42.60;;;;;;5050034;28;20699;-39
2022/10/30 05:26:51;;;;;;;0.52;0.50;;;27.10;42.50;;;;;;5050105;28;20572;-39
2022/10/30 05:29:22;;;;;;;1.13;0.50;;;27.10;42.50;;;;;;5049865;28;20204;-40
2022/10/30 05:31:53;;;;;;;1.40;0.30;;;27.10;42.40;;;;;;5050278;28;20199;-40
2022/10/30 05:34:24;;;;;;;1.15;0.50;;;27.10;42.30;;;;;;5050854;28;20199;-41
2022/10/30 05:36:54;;;;;;;0.73;0.40;;;27.10;42.30;;;;;;5049289;28;20220;-40
2022/10/30 05:39:27;;;;;;;0.63;0.40;;;27.10;42.30;;;;;;5050212;28;20200;-42
2022/10/30 05:41:57;;;;;;;0.52;0.40;;;27.10;42.10;;;;;;5050322;28;20195;-41
2022/10/30 05:44:28;;;;;;;0.52;0.32;;;27.10;42.00;;;;;;5050087;28;20235;-40
2022/10/30 05:46:59;;;;;;;1.83;0.45;;;27.10;41.80;;;;;;5050525;28;20215;-40
2022/10/30 05:49:30;;;;;;;0.68;0.40;;;27.10;41.60;;;;;;5050166;28;20666;-40
2022/10/30 05:52:00;;;;;;;0.65;0.40;;;27.10;41.70;;;;;;5049873;28;20195;-40
2022/10/30 05:54:33;;;;;;;0.85;0.45;;;27.10;41.80;;;;;;5049978;28;20203;-41
2022/10/30 05:57:04;;;;;;;0.38;0.38;;;27.10;41.70;;;;;;5049463;28;20223;-40
2022/10/30 05:59:34;;;;;;;1.13;0.60;;;27.10;41.80;;;;;;5049539;28;20195;-39
2022/10/30 06:02:05;;;;;;;3.63;0.50;;;27.10;41.70;;;;;;5049706;28;20195;-41
2022/10/30 06:04:36;;;;;;;0.93;0.60;;;27.10;41.60;;;;;;5049739;28;20234;-40
2022/10/30 06:07:06;;;;;;;0.73;0.32;;;27.10;41.40;;;;;;5049407;28;20842;-40
2022/10/30 06:09:39;;;;;;;1.00;0.40;;;27.00;41.50;;;;;;5049691;28;20199;-40
2022/10/30 06:12:10;;;;;;;0.75;0.50;;;27.10;41.30;;;;;;5049503;28;20196;-41
2022/10/30 06:14:41;;;;;;;1.23;0.40;;;27.10;41.50;;;;;;5049806;28;20196;-40
2022/10/30 06:17:11;;;;;;;1.55;0.40;;;27.10;41.30;;;;;;5049744;28;20207;-43
2022/10/30 06:19:42;;;;;;;1.23;0.50;;;27.00;41.00;;;;;;5049916;28;20195;-42
2022/10/30 06:22:13;;;;;;;0.63;0.50;;;27.00;40.90;;;;;;5049039;28;20199;-40
2022/10/30 06:24:45;;;;;;;0.77;0.50;;;27.00;40.90;;;;;;5049834;28;20773;-43
2022/10/30 06:27:16;;;;;;;0.85;0.68;;;27.00;40.80;;;;;;5049498;28;20724;-40
2022/10/30 06:29:47;;;;;;;1.65;0.50;;;27.00;40.90;;;;;;5049720;28;20198;-44
2022/10/30 06:32:18;;;;;;;1.25;0.50;;;27.00;40.90;;;;;;5049568;28;20199;-40
2022/10/30 06:34:48;;;;;;;0.50;0.50;;;27.00;41.00;;;;;;5050119;28;20195;-40
2022/10/30 06:37:19;;;;;;;1.98;0.68;;;27.00;41.00;;;;;;5049474;28;20238;-43
2022/10/30 06:39:52;;;;;;;0.60;0.45;;;27.00;41.00;;;;;;5049807;28;20652;-44
2022/10/30 06:42:22;;;;;;;0.90;0.50;;;27.00;41.00;;;;;;5051018;28;20647;-41
2022/10/30 06:44:53;;;;;;;1.10;0.70;;;26.90;41.00;;;;;;5053201;28;20223;-39
2022/10/30 06:47:24;;;;;;;1.30;0.70;;;26.90;41.00;;;;;;5053445;28;20562;-40
2022/10/30 06:49:54;;;;;;;1.02;0.40;;;26.90;41.00;;;;;;5053295;28;20198;-43
2022/10/30 06:52:25;;;;;;;0.98;0.60;;;26.90;41.10;;;;;;5052527;28;20888;-40
2022/10/30 06:54:58;;;;;;;2.17;0.90;;;26.90;41.00;;;;;;5052796;28;20695;-42
2022/10/30 06:57:28;;;;;;;0.38;0.38;;;26.90;40.80;;;;;;5053150;28;20219;-40
2022/10/30 06:59:59;;;;;;;0.43;0.30;;;26.80;40.60;;;;;;5053623;28;20585;-39
2022/10/30 07:02:30;;;;;;;0.60;0.43;;;26.80;41.10;;;;;;5053326;28;20206;-39
2022/10/30 07:05:01;;;;;;;0.82;0.50;;;26.80;40.50;;;;;;5051392;28;20219;-40
2022/10/30 07:07:32;;;;;;;0.70;0.40;;;26.70;41.20;;;;;;5034878;28;20219;-40
2022/10/30 07:10:04;;;;;;;0.20;0.20;;;26.70;40.60;;;;;;5053257;28;20191;-40
2022/10/30 07:12:35;;;;;;;0.52;0.45;;;26.70;40.80;;;;;;5053138;28;20698;-39
2022/10/30 07:15:06;;;;;;;0.93;0.40;;;26.70;40.90;;;;;;5053563;28;20210;-39
2022/10/30 07:17:37;;;;;;;0.82;0.40;;;26.60;40.90;;;;;;5052565;28;20215;-39
2022/10/30 07:20:08;;;;;;;0.50;0.40;;;26.60;40.80;;;;;;5052415;28;20199;-40
2022/10/30 07:22:41;;;;;;;1.02;0.47;;;26.60;41.00;;;;;;5052438;28;20199;-40
2022/10/30 07:25:14;;;;;;;0.68;0.57;;;26.50;40.80;;;;;;5053374;28;20230;-39
2022/10/30 07:27:49;;;;;;;0.40;0.40;;;26.50;40.80;;;;;;5052711;28;20219;-40
2022/10/30 07:30:21;;;;;;;2.15;0.50;;;26.50;40.80;;;;;;5052037;28;20195;-39
2022/10/30 07:33:00;;;;;;;0.80;0.50;;;26.50;40.80;;;;;;5039530;28;20203;-40
2022/10/30 07:35:31;;;;;;;0.52;0.50;;;26.40;40.70;;;;;;5052240;28;20535;-40
2022/10/30 07:38:05;;;;;;;1.05;0.40;;;26.40;40.70;;;;;;5051974;28;20574;-39
2022/10/30 07:40:37;;;;;;;0.75;0.40;;;26.40;40.80;;;;;;5051523;28;20206;-39
2022/10/30 07:43:09;;;;;;;1.60;0.47;;;26.30;40.70;;;;;;5052433;28;20202;-40
2022/10/30 07:45:39;;;;;;;0.50;0.50;;;26.30;40.70;;;;;;5052131;28;20222;-39
2022/10/30 07:48:10;;;;;;;0.40;0.40;;;26.30;40.80;;;;;;5052249;28;20215;-39
2022/10/30 07:50:41;;;;;;;0.35;0.35;;;26.30;40.80;;;;;;5052141;28;20194;-39
2022/10/30 07:53:12;;;;;;;0.40;0.40;;;26.20;40.80;;;;;;5051750;28;20218;-40
2022/10/30 07:55:45;;;;;;;0.40;0.40;;;26.20;40.80;;;;;;5052303;28;20199;-42
2022/10/30 07:58:15;;;;;;;0.30;0.30;;;26.20;40.90;;;;;;5052245;28;20222;-39
2022/10/30 08:00:46;;;;;;;0.60;0.50;;;26.20;40.80;;;;;;5047780;28;20544;-40
2022/10/30 08:03:18;;;;;;;0.68;0.60;;;26.20;40.90;;;;;;5053304;28;20207;-39
2022/10/30 08:05:49;;;;;;;0.98;0.40;;;26.10;40.80;;;;;;5042280;28;20584;-42
2022/10/30 08:08:20;;;;;;;1.25;0.50;;;26.10;40.80;;;;;;5032402;28;20231;-42
2022/10/30 08:10:52;;;;;;;0.52;0.40;;;26.10;40.80;;;;;;5048391;28;20195;-42
2022/10/30 08:13:23;;;;;;;0.47;0.47;;;26.00;40.60;;;;;;5052434;28;20199;-40
2022/10/30 08:15:54;;;;;;;0.47;0.47;;;26.00;40.70;;;;;;5032664;28;20199;-41
2022/10/30 08:18:25;;;;;;;0.40;0.40;;;25.90;40.70;;;;;;5047122;28;20211;-40
2022/10/30 08:20:56;;;;;;;0.73;0.43;;;26.00;40.80;;;;;;5052181;28;20227;-40
2022/10/30 08:23:26;;;;;;;0.40;0.32;;;25.90;40.80;;;;;;5049238;28;20210;-43
2022/10/30 08:26:01;;;;;;;1.17;0.60;;;25.90;41.00;;;;;;5031862;28;20228;-40
2022/10/30 08:28:31;;;;;;;0.40;0.40;;;25.80;41.00;;;;;;5033588;28;20749;-39
2022/10/30 08:31:04;;;;;;;0.57;0.40;;;25.90;41.10;;;;;;5052477;28;20199;-39
2022/10/30 08:33:35;;;;;;;0.60;0.60;;;25.80;41.10;;;;;;5052790;28;20196;-41
2022/10/30 08:36:06;;;;;;;1.10;0.50;;;25.80;41.20;;;;;;5051899;28;20199;-39
2022/10/30 08:38:36;;;;;;;0.50;0.40;;;25.80;41.20;;;;;;5050858;28;20589;-41
2022/10/30 08:41:09;;;;;;;1.08;0.60;;;25.80;41.30;;;;;;5050384;28;20202;-39
2022/10/30 08:43:40;;;;;;;0.70;0.47;;;25.70;41.20;;;;;;5051039;28;20200;-44
2022/10/30 08:46:11;;;;;;;0.57;0.43;;;25.70;41.30;;;;;;5032333;28;20811;-43
2022/10/30 08:48:41;;;;;;;0.70;0.50;;;25.70;41.30;;;;;;5047146;28;20220;-39
2022/10/30 08:51:12;;;;;;;0.40;0.40;;;25.60;41.30;;;;;;5034569;28;20196;-39
2022/10/30 08:53:43;;;;;;;0.47;0.47;;;25.60;41.40;;;;;;5035678;28;20191;-39
2022/10/30 08:56:15;;;;;;;0.57;0.40;;;25.60;41.40;;;;;;5051825;28;20196;-40
2022/10/30 08:58:46;;;;;;;0.40;0.30;;;25.60;41.50;;;;;;5051010;28;20254;-41
2022/10/30 09:01:17;;;;;;;0.50;0.40;;;25.60;41.60;;;;;;5052058;28;20206;-39
2022/10/30 09:03:48;;;;;;;0.82;0.43;;;25.50;41.60;;;;;;5049392;28;20265;-40
2022/10/30 09:06:19;;;;;;;0.57;0.40;;;25.50;41.70;;;;;;5034111;28;20219;-40
2022/10/30 09:08:49;;;;;;;0.43;0.43;;;25.50;41.70;;;;;;5049610;28;20222;-40
2022/10/30 09:11:22;;;;;;;1.00;0.70;;;25.50;41.70;;;;;;5051184;28;20210;-43
2022/10/30 09:13:53;;;;;;;0.57;0.50;;;25.50;41.80;;;;;;5050852;28;20246;-39
2022/10/30 09:16:23;;;;;;;0.85;0.40;;;25.40;41.80;;;;;;5031641;28;20204;-42
2022/10/30 09:18:54;;;;;;;0.43;0.40;;;25.40;41.90;;;;;;5033233;28;20678;-39
2022/10/30 09:21:25;;;;;;;0.55;0.32;;;25.40;41.90;;;;;;5051091;28;20199;-39
2022/10/30 09:23:55;;;;;;;0.57;0.30;;;25.40;41.90;;;;;;5051187;28;20226;-39
2022/10/30 09:26:28;;;;;;;0.70;0.40;;;25.30;41.90;;;;;;5051004;28;20223;-39
2022/10/30 09:28:59;;;;;;;0.40;0.40;;;25.30;41.90;;;;;;5051778;28;20618;-39
2022/10/30 09:31:30;;;;;;;0.32;0.32;;;25.30;41.90;;;;;;5051061;28;20196;-39
2022/10/30 09:34:00;;;;;;;0.25;0.25;;;25.20;42.00;;;;;;5050476;28;20205;-39
2022/10/30 09:36:31;;;;;;;0.70;0.38;;;25.20;42.10;;;;;;5045984;28;20183;-40
2022/10/30 09:39:02;;;;;;;0.32;0.30;;;25.20;42.20;;;;;;5044705;28;20192;-40
2022/10/30 09:42:01;;;;;;;0.63;0.38;;;25.20;42.20;;;;;;5049369;28;20205;-42
2022/10/30 09:44:41;;;;;;;0.30;0.30;;;25.10;42.20;;;;;;5050217;28;20206;-40
2022/10/30 09:47:23;;;;;;;0.30;0.30;;;25.20;42.30;;;;;;5050283;28;20601;-39
2022/10/30 09:50:21;;;;;;;0.40;0.40;;;25.10;42.30;;;;;;5049990;28;20199;-39
2022/10/30 09:53:04;;;;;;;0.30;0.30;;;25.10;42.30;;;;;;5030562;28;20233;-41
2022/10/30 09:55:43;;;;;;;0.55;0.30;;;25.10;42.40;;;;;;5049734;28;20196;-39
2022/10/30 09:58:25;;;;;;;0.57;0.30;;;25.00;42.40;;;;;;5049954;28;20211;-39
2022/10/30 10:01:03;;;;;;;0.40;0.40;;;25.00;42.40;;;;;;5049806;28;20556;-39
2022/10/30 10:03:50;;;;;;;0.40;0.35;;;25.00;42.40;;;;;;5049673;28;20195;-40
2022/10/30 10:06:23;;;;;;;0.63;0.47;;;24.90;42.40;;;;;;5049746;28;20223;-39
2022/10/30 10:08:57;;;;;;;0.30;0.30;;;24.90;42.50;;;;;;5049734;28;20227;-41
2022/10/30 10:11:31;;;;;;;0.30;0.30;;;24.90;42.50;;;;;;5042999;28;20233;-40
2022/10/30 10:14:08;;;;;;;0.30;0.20;;;24.90;42.60;;;;;;5050000;28;20194;-41
2022/10/30 10:16:41;;;;;;;0.30;0.30;;;24.80;42.60;;;;;;5050046;28;20277;-39
2022/10/30 10:19:20;;;;;;;0.68;0.30;;;24.90;42.60;;;;;;5049694;28;20199;-44
2022/10/30 10:21:57;;;;;;;0.45;0.25;;;24.80;42.60;;;;;;5049888;28;20202;-40
2022/10/30 10:24:30;;;;;;;0.60;0.38;;;24.80;42.70;;;;;;5050075;28;20567;-40
2022/10/30 10:27:11;;;;;;;0.40;0.30;;;24.80;42.70;;;;;;5048907;28;20227;-39
2022/10/30 10:29:55;;;;;;;0.47;0.25;;;24.80;42.70;;;;;;5049253;28;20842;-41
2022/10/30 10:32:50;;;;;;;0.20;0.20;;;24.70;42.80;;;;;;5049604;28;20195;-45
2022/10/30 10:35:53;;;;;;;0.30;0.30;;;24.70;42.80;;;;;;5049400;28;20203;-41
2022/10/30 10:38:37;;;;;;;0.75;0.40;;;24.70;42.80;;;;;;5049228;28;20234;-40
2022/10/30 10:41:19;;;;;;;0.30;0.30;;;24.60;42.80;;;;;;5048522;28;20199;-42
2022/10/30 10:44:06;;;;;;;0.45;0.35;;;24.60;42.90;;;;;;5048822;28;20548;-40
2022/10/30 10:46:51;;;;;;;0.50;0.50;;;24.60;43.00;;;;;;5048790;28;20223;-39
2022/10/30 10:49:33;;;;;;;0.35;0.35;;;24.60;43.00;;;;;;5049442;28;20363;-39
2022/10/30 10:52:07;;;;;;;0.20;0.20;;;24.50;43.00;;;;;;5049683;28;20203;-39
2022/10/30 10:54:42;;;;;;;0.35;0.35;;;24.50;43.00;;;;;;5049199;28;20198;-39
2022/10/30 10:57:19;;;;;;;0.25;0.20;;;24.50;43.10;;;;;;5048900;28;20616;-41
2022/10/30 10:59:54;;;;;;;0.20;0.20;;;24.50;43.10;;;;;;5049841;28;20587;-39
2022/10/30 11:02:40;;;;;;;0.30;0.30;;;24.50;43.10;;;;;;5049438;28;20195;-40
2022/10/30 11:05:19;;;;;;;0.40;0.40;;;24.40;43.10;;;;;;5049178;28;20199;-39
2022/10/30 11:07:51;;;;;;;1.58;0.30;;;24.50;43.20;;;;;;5049452;28;20636;-39
2022/10/30 11:10:24;;;;;;;0.32;0.30;;;24.40;43.20;;;;;;5048766;28;20207;-39
2022/10/30 11:12:55;;;;;;;1.20;0.30;;;24.40;43.20;;;;;;5049105;28;20207;-45
2022/10/30 11:15:36;;;;;;;0.77;0.30;;;24.30;43.30;;;;;;5048989;28;20196;-39
2022/10/30 11:18:10;;;;;;;0.40;0.40;;;24.30;43.30;;;;;;5048741;28;20223;-39
2022/10/30 11:20:45;;;;;;;0.35;0.30;;;24.30;43.30;;;;;;5049057;28;20203;-40
2022/10/30 11:23:37;;;;;;;0.40;0.30;;;24.30;43.40;;;;;;5049272;28;20206;-42
2022/10/30 11:26:25;;;;;;;0.20;0.20;;;24.20;43.40;;;;;;5048315;28;20273;-39
2022/10/30 11:28:59;;;;;;;0.25;0.25;;;24.20;43.40;;;;;;5051862;28;20215;-40
2022/10/30 11:31:36;;;;;;;0.40;0.40;;;24.20;43.50;;;;;;5052528;28;20199;-39
2022/10/30 11:34:38;;;;;;;0.25;0.25;;;24.20;43.50;;;;;;5051811;28;20647;-39
2022/10/30 11:37:33;;;;;;;0.30;0.30;;;24.20;43.60;;;;;;4999263;28;20214;-39
2022/10/30 11:40:17;;;;;;;0.35;0.30;;;24.20;43.50;;;;;;5051936;28;20245;-39
2022/10/30 11:42:50;;;;;;;0.30;0.30;;;24.20;43.60;;;;;;5051950;28;20639;-39
2022/10/30 11:45:26;;;;;;;0.30;0.20;;;24.20;43.60;;;;;;5041176;28;20200;-38
2022/10/30 11:47:59;;;;;;;0.30;0.30;;;24.10;43.60;;;;;;5032827;28;20228;-40
2022/10/30 11:50:33;;;;;;;0.20;0.20;;;24.10;43.70;;;;;;5043526;28;20192;-40
2022/10/30 11:53:11;;;;;;;0.30;0.30;;;24.00;43.70;;;;;;5052474;28;20214;-39
2022/10/30 11:55:46;;;;;;;0.30;0.30;;;24.00;43.80;;;;;;5051910;28;20203;-39
2022/10/30 11:58:26;;;;;;;0.30;0.30;;;24.00;43.90;;;;;;5051971;28;20686;-39
2022/10/30 12:01:09;;;;;;;0.20;0.20;;;23.90;43.80;;;;;;5052217;28;20680;-41
2022/10/30 12:03:42;;;;;;;0.30;0.30;;;24.00;43.90;;;;;;5051981;28;20654;-39
2022/10/30 12:06:20;;;;;;;0.20;0.20;;;24.00;43.90;;;;;;5052271;28;20219;-42
2022/10/30 12:09:05;;;;;;;0.20;0.20;;;23.90;43.80;;;;;;5052385;28;20276;-39
2022/10/30 12:11:37;;;;;;;0.30;0.30;;;23.90;43.80;;;;;;5040074;28;20203;-41
2022/10/30 12:14:08;;;;;;;0.88;0.30;;;23.90;43.80;;;;;;5052148;28;20202;-39
2022/10/30 12:16:45;;;;;;;0.30;0.30;;;23.90;43.90;;;;;;5052038;28;20211;-40
2022/10/30 12:19:19;;;;;;;0.30;0.30;;;23.90;43.90;;;;;;5052212;28;20230;-41
2022/10/30 12:21:52;;;;;;;0.20;0.20;;;23.80;44.00;;;;;;5052135;28;20195;-45
2022/10/30 12:24:30;;;;;;;0.25;0.20;;;23.80;44.10;;;;;;5051592;28;20205;-39
2022/10/30 12:27:04;;;;;;;0.30;0.30;;;23.80;44.10;;;;;;5050955;28;20227;-40
2022/10/30 12:29:44;;;;;;;0.40;0.40;;;23.80;44.10;;;;;;5051834;28;20568;-42
2022/10/30 12:32:19;;;;;;;0.30;0.30;;;23.70;44.10;;;;;;5051858;28;20203;-39
2022/10/30 12:34:59;;;;;;;0.30;0.28;;;23.70;44.20;;;;;;5051970;28;20202;-42
2022/10/30 12:37:34;;;;;;;0.20;0.20;;;23.70;44.10;;;;;;5052402;28;20601;-40
2022/10/30 12:40:09;;;;;;;0.30;0.30;;;23.70;44.20;;;;;;5050252;28;20203;-40
2022/10/30 12:42:45;;;;;;;0.28;0.25;;;23.70;44.20;;;;;;5051231;28;20191;-39
2022/10/30 12:45:20;;;;;;;0.20;0.20;;;23.70;44.20;;;;;;5051741;28;20195;-39
2022/10/30 12:47:56;;;;;;;0.38;0.38;;;23.70;44.20;;;;;;5051270;28;20235;-39
2022/10/30 12:50:30;;;;;;;0.30;0.30;;;23.70;44.10;;;;;;5051311;28;20195;-39
2022/10/30 12:53:09;;;;;;;0.32;0.30;;;23.60;44.20;;;;;;5051375;28;20195;-41
2022/10/30 12:55:45;;;;;;;0.55;0.30;;;23.60;44.20;;;;;;5050824;28;20191;-45
2022/10/30 12:58:25;;;;;;;0.68;0.30;;;23.60;44.20;;;;;;5050740;28;20219;-39
2022/10/30 13:01:02;;;;;;;0.20;0.20;;;23.60;44.30;;;;;;5051652;28;20561;-39
2022/10/30 13:03:36;;;;;;;0.22;0.22;;;23.50;44.30;;;;;;5051180;28;20644;-40
2022/10/30 13:06:17;;;;;;;0.28;0.28;;;23.50;44.30;;;;;;5050825;28;20191;-40
2022/10/30 13:09:00;;;;;;;0.30;0.30;;;23.50;44.30;;;;;;5050469;28;20219;-43
2022/10/30 13:11:41;;;;;;;0.60;0.35;;;23.50;44.40;;;;;;5034370;28;20638;-39
2022/10/30 13:14:17;;;;;;;0.20;0.20;;;23.50;44.40;;;;;;5050491;28;20200;-39
2022/10/30 13:16:48;;;;;;;0.32;0.30;;;23.50;44.40;;;;;;5050634;28;20411;-39
2022/10/30 13:19:19;;;;;;;0.60;0.30;;;23.40;44.30;;;;;;5051070;28;20582;-39
2022/10/30 13:22:00;;;;;;;0.43;0.30;;;23.50;44.40;;;;;;5050962;28;20195;-39